sensor_id;sensor_type;location;lat;lon;timestamp;pressure;altitude;pressure_sealevel;temperature;humidity
19777;BME280;10047;42.490;26.012;2023-05-23T00:01:17;100225.91;;;16.57;100.00
19777;BME280;10047;42.490;26.012;2023-05-23T00:03:42;100183.22;;;16.54;100.00
19777;BME280;10047;42.490;26.012;2023-05-23T00:06:08;100232.41;;;16.64;100.00
19777;BME280;10047;42.490;26.012;2023-05-23T00:08:34;100237.94;;;16.73;100.00
19777;BME280;10047;42.490;26.012;2023-05-23T00:11:00;100234.66;;;16.53;100.00
19777;BME280;10047;42.490;26.012;2023-05-23T00:13:25;100192.31;;;16.25;100.00
19777;BME280;10047;42.490;26.012;2023-05-23T00:15:51;100231.88;;;16.57;100.00
19777;BME280;10047;42.490;26.012;2023-05-23T00:18:16;100228.47;;;16.57;100.00
19777;BME280;10047;42.490;26.012;2023-05-23T00:20:42;100206.00;;;16.26;100.00
19777;BME280;10047;42.490;26.012;2023-05-23T00:23:09;100188.31;;;16.20;100.00
19777;BME280;10047;42.490;26.012;2023-05-23T00:25:35;100213.13;;;16.55;100.00
19777;BME280;10047;42.490;26.012;2023-05-23T00:28:01;100180.94;;;16.31;100.00
19777;BME280;10047;42.490;26.012;2023-05-23T00:30:31;100221.44;;;16.60;100.00
19777;BME280;10047;42.490;26.012;2023-05-23T00:32:57;100222.56;;;16.55;100.00
19777;BME280;10047;42.490;26.012;2023-05-23T00:35:23;100225.44;;;16.48;100.00
19777;BME280;10047;42.490;26.012;2023-05-23T00:37:48;100223.19;;;16.60;100.00
19777;BME280;10047;42.490;26.012;2023-05-23T00:40:18;100224.47;;;16.51;100.00
19777;BME280;10047;42.490;26.012;2023-05-23T00:42:43;100231.94;;;16.56;100.00
19777;BME280;10047;42.490;26.012;2023-05-23T00:45:09;100171.47;;;16.14;100.00
19777;BME280;10047;42.490;26.012;2023-05-23T00:47:37;100173.97;;;16.33;100.00
19777;BME280;10047;42.490;26.012;2023-05-23T00:50:04;100162.06;;;16.32;100.00
19777;BME280;10047;42.490;26.012;2023-05-23T00:52:31;100235.41;;;16.55;100.00
19777;BME280;10047;42.490;26.012;2023-05-23T00:54:57;100165.94;;;16.05;100.00
19777;BME280;10047;42.490;26.012;2023-05-23T00:57:22;100161.66;;;15.87;100.00
19777;BME280;10047;42.490;26.012;2023-05-23T00:59:48;100227.19;;;16.29;100.00
19777;BME280;10047;42.490;26.012;2023-05-23T01:02:13;100168.00;;;15.80;100.00
19777;BME280;10047;42.490;26.012;2023-05-23T01:04:38;100224.72;;;16.09;100.00
19777;BME280;10047;42.490;26.012;2023-05-23T01:07:04;100148.22;;;15.65;100.00
19777;BME280;10047;42.490;26.012;2023-05-23T01:09:30;100240.13;;;16.09;100.00
19777;BME280;10047;42.490;26.012;2023-05-23T01:15:03;100240.88;;;16.11;100.00
19777;BME280;10047;42.490;26.012;2023-05-23T01:17:43;100196.53;;;15.91;100.00
19777;BME280;10047;42.490;26.012;2023-05-23T01:26:05;100236.50;;;15.95;100.00
19777;BME280;10047;42.490;26.012;2023-05-23T01:28:43;100273.19;;;16.15;100.00
19777;BME280;10047;42.490;26.012;2023-05-23T01:31:17;100245.41;;;15.88;100.00
19777;BME280;10047;42.490;26.012;2023-05-23T01:33:42;100218.28;;;15.63;100.00
19777;BME280;10047;42.490;26.012;2023-05-23T01:36:12;100308.13;;;16.18;100.00
19777;BME280;10047;42.490;26.012;2023-05-23T01:38:38;100255.47;;;15.92;100.00
19777;BME280;10047;42.490;26.012;2023-05-23T01:41:03;100326.28;;;16.13;100.00
19777;BME280;10047;42.490;26.012;2023-05-23T01:43:29;100346.34;;;16.24;100.00
19777;BME280;10047;42.490;26.012;2023-05-23T01:45:55;100290.38;;;15.76;100.00
19777;BME280;10047;42.490;26.012;2023-05-23T01:48:22;100308.97;;;16.00;100.00
19777;BME280;10047;42.490;26.012;2023-05-23T01:50:49;100358.13;;;16.28;100.00
19777;BME280;10047;42.490;26.012;2023-05-23T01:53:17;100323.09;;;15.90;100.00
19777;BME280;10047;42.490;26.012;2023-05-23T01:55:43;100371.09;;;16.06;100.00
19777;BME280;10047;42.490;26.012;2023-05-23T01:58:09;100384.94;;;16.21;100.00
19777;BME280;10047;42.490;26.012;2023-05-23T02:00:35;100384.69;;;16.08;100.00
19777;BME280;10047;42.490;26.012;2023-05-23T02:03:00;100403.69;;;16.23;100.00
19777;BME280;10047;42.490;26.012;2023-05-23T02:05:26;100366.03;;;15.85;100.00
19777;BME280;10047;42.490;26.012;2023-05-23T02:07:52;100433.88;;;15.78;100.00
19777;BME280;10047;42.490;26.012;2023-05-23T02:10:17;100414.81;;;15.21;100.00
19777;BME280;10047;42.490;26.012;2023-05-23T02:12:44;100474.69;;;15.19;100.00
19777;BME280;10047;42.490;26.012;2023-05-23T02:15:10;100479.81;;;14.74;100.00
19777;BME280;10047;42.490;26.012;2023-05-23T02:17:35;100551.47;;;15.20;100.00
19777;BME280;10047;42.490;26.012;2023-05-23T02:20:03;100604.84;;;15.09;100.00
19777;BME280;10047;42.490;26.012;2023-05-23T02:22:28;100641.00;;;14.77;100.00
19777;BME280;10047;42.490;26.012;2023-05-23T02:24:54;100700.41;;;15.11;100.00
19777;BME280;10047;42.490;26.012;2023-05-23T02:27:19;100790.13;;;15.08;100.00
19777;BME280;10047;42.490;26.012;2023-05-23T02:29:45;100912.75;;;15.19;100.00
19777;BME280;10047;42.490;26.012;2023-05-23T02:32:10;100903.53;;;14.86;100.00
19777;BME280;10047;42.490;26.012;2023-05-23T02:34:36;100944.88;;;14.73;100.00
19777;BME280;10047;42.490;26.012;2023-05-23T02:37:02;100995.47;;;14.95;100.00
19777;BME280;10047;42.490;26.012;2023-05-23T02:39:27;101085.94;;;15.24;100.00
19777;BME280;10047;42.490;26.012;2023-05-23T02:41:53;101123.00;;;15.13;100.00
19777;BME280;10047;42.490;26.012;2023-05-23T02:44:18;101132.44;;;15.11;100.00
19777;BME280;10047;42.490;26.012;2023-05-23T02:46:44;101115.94;;;14.90;100.00
19777;BME280;10047;42.490;26.012;2023-05-23T02:49:10;101216.13;;;15.10;100.00
19777;BME280;10047;42.490;26.012;2023-05-23T02:51:36;101196.59;;;14.74;100.00
19777;BME280;10047;42.490;26.012;2023-05-23T02:54:01;101243.56;;;15.07;100.00
19777;BME280;10047;42.490;26.012;2023-05-23T02:56:27;101237.25;;;14.86;100.00
19777;BME280;10047;42.490;26.012;2023-05-23T02:58:52;101301.81;;;14.99;100.00
19777;BME280;10047;42.490;26.012;2023-05-23T03:01:18;101272.03;;;14.61;100.00
19777;BME280;10047;42.490;26.012;2023-05-23T03:03:44;101282.63;;;14.46;100.00
19777;BME280;10047;42.490;26.012;2023-05-23T03:06:09;101371.06;;;14.94;100.00
19777;BME280;10047;42.490;26.012;2023-05-23T03:08:42;101340.91;;;14.70;100.00
19777;BME280;10047;42.490;26.012;2023-05-23T03:11:08;101426.16;;;14.75;100.00
19777;BME280;10047;42.490;26.012;2023-05-23T03:13:34;101439.78;;;15.14;100.00
19777;BME280;10047;42.490;26.012;2023-05-23T03:16:00;101421.38;;;14.58;100.00
19777;BME280;10047;42.490;26.012;2023-05-23T03:18:25;101481.28;;;14.91;100.00
19777;BME280;10047;42.490;26.012;2023-05-23T03:20:50;101456.66;;;14.46;100.00
19777;BME280;10047;42.490;26.012;2023-05-23T03:23:16;101578.00;;;14.78;100.00
19777;BME280;10047;42.490;26.012;2023-05-23T03:25:42;101514.78;;;14.39;100.00
19777;BME280;10047;42.490;26.012;2023-05-23T03:28:07;101548.50;;;14.11;100.00
19777;BME280;10047;42.490;26.012;2023-05-23T03:30:33;101575.13;;;14.51;100.00
19777;BME280;10047;42.490;26.012;2023-05-23T03:32:58;101632.78;;;14.70;100.00
19777;BME280;10047;42.490;26.012;2023-05-23T03:35:24;101578.81;;;13.81;100.00
19777;BME280;10047;42.490;26.012;2023-05-23T03:37:49;101640.25;;;14.81;100.00
19777;BME280;10047;42.490;26.012;2023-05-23T03:40:15;101670.31;;;14.71;100.00
19777;BME280;10047;42.490;26.012;2023-05-23T03:42:40;101666.69;;;14.34;100.00
19777;BME280;10047;42.490;26.012;2023-05-23T03:45:06;101725.63;;;14.81;100.00
19777;BME280;10047;42.490;26.012;2023-05-23T03:47:31;101700.28;;;14.64;100.00
19777;BME280;10047;42.490;26.012;2023-05-23T03:49:57;101746.28;;;15.18;100.00
19777;BME280;10047;42.490;26.012;2023-05-23T03:52:22;101718.19;;;15.15;100.00
19777;BME280;10047;42.490;26.012;2023-05-23T03:54:48;101750.22;;;15.35;100.00
19777;BME280;10047;42.490;26.012;2023-05-23T03:57:13;101682.59;;;15.00;100.00
19777;BME280;10047;42.490;26.012;2023-05-23T03:59:39;101692.94;;;15.38;100.00
19777;BME280;10047;42.490;26.012;2023-05-23T04:02:05;101692.44;;;15.21;100.00
19777;BME280;10047;42.490;26.012;2023-05-23T04:04:30;101640.19;;;14.85;100.00
19777;BME280;10047;42.490;26.012;2023-05-23T04:06:56;101712.75;;;16.11;100.00
19777;BME280;10047;42.490;26.012;2023-05-23T04:09:22;101691.03;;;15.89;100.00
19777;BME280;10047;42.490;26.012;2023-05-23T04:11:48;101770.78;;;16.18;100.00
19777;BME280;10047;42.490;26.012;2023-05-23T04:14:13;101742.75;;;16.45;100.00
19777;BME280;10047;42.490;26.012;2023-05-23T04:16:39;101699.69;;;16.21;100.00
19777;BME280;10047;42.490;26.012;2023-05-23T04:19:06;101734.97;;;16.85;100.00
19777;BME280;10047;42.490;26.012;2023-05-23T04:21:35;101736.44;;;16.23;100.00
19777;BME280;10047;42.490;26.012;2023-05-23T04:24:00;101725.03;;;15.98;100.00
19777;BME280;10047;42.490;26.012;2023-05-23T04:26:29;101713.16;;;15.54;100.00
19777;BME280;10047;42.490;26.012;2023-05-23T04:28:54;101703.75;;;15.93;100.00
19777;BME280;10047;42.490;26.012;2023-05-23T04:31:20;101731.31;;;15.44;100.00
19777;BME280;10047;42.490;26.012;2023-05-23T04:33:48;101668.00;;;15.47;100.00
19777;BME280;10047;42.490;26.012;2023-05-23T04:36:14;101686.81;;;15.86;100.00
19777;BME280;10047;42.490;26.012;2023-05-23T04:38:40;101675.50;;;15.95;100.00
19777;BME280;10047;42.490;26.012;2023-05-23T04:41:06;101738.81;;;15.93;100.00
19777;BME280;10047;42.490;26.012;2023-05-23T04:43:34;101719.78;;;16.03;100.00
19777;BME280;10047;42.490;26.012;2023-05-23T04:46:02;101667.03;;;15.91;100.00
19777;BME280;10047;42.490;26.012;2023-05-23T04:48:28;101670.56;;;15.47;100.00
19777;BME280;10047;42.490;26.012;2023-05-23T04:50:54;101656.06;;;15.85;100.00
19777;BME280;10047;42.490;26.012;2023-05-23T04:53:21;101736.22;;;16.32;100.00
19777;BME280;10047;42.490;26.012;2023-05-23T04:55:47;101745.28;;;16.48;100.00
19777;BME280;10047;42.490;26.012;2023-05-23T04:58:12;101739.31;;;16.46;100.00
19777;BME280;10047;42.490;26.012;2023-05-23T05:00:38;101754.13;;;16.72;100.00
19777;BME280;10047;42.490;26.012;2023-05-23T05:03:03;101707.66;;;16.81;100.00
19777;BME280;10047;42.490;26.012;2023-05-23T05:05:29;101706.72;;;16.84;100.00
19777;BME280;10047;42.490;26.012;2023-05-23T05:07:54;101754.84;;;17.42;100.00
19777;BME280;10047;42.490;26.012;2023-05-23T05:10:20;101714.19;;;17.25;100.00
19777;BME280;10047;42.490;26.012;2023-05-23T05:12:46;101700.66;;;17.18;100.00
19777;BME280;10047;42.490;26.012;2023-05-23T05:15:14;101741.16;;;17.72;100.00
19777;BME280;10047;42.490;26.012;2023-05-23T05:17:41;101703.59;;;17.35;100.00
19777;BME280;10047;42.490;26.012;2023-05-23T05:20:07;101660.50;;;17.44;100.00
19777;BME280;10047;42.490;26.012;2023-05-23T05:22:37;101753.94;;;18.04;100.00
19777;BME280;10047;42.490;26.012;2023-05-23T05:25:05;101760.44;;;18.15;100.00
19777;BME280;10047;42.490;26.012;2023-05-23T05:27:32;101690.31;;;18.07;100.00
19777;BME280;10047;42.490;26.012;2023-05-23T05:29:57;101678.31;;;18.33;100.00
19777;BME280;10047;42.490;26.012;2023-05-23T05:32:27;101714.94;;;18.44;100.00
19777;BME280;10047;42.490;26.012;2023-05-23T05:34:55;101712.31;;;17.90;100.00
19777;BME280;10047;42.490;26.012;2023-05-23T05:37:20;101711.97;;;18.28;100.00
19777;BME280;10047;42.490;26.012;2023-05-23T05:39:46;101702.25;;;18.36;100.00
19777;BME280;10047;42.490;26.012;2023-05-23T05:42:12;101612.69;;;17.66;100.00
19777;BME280;10047;42.490;26.012;2023-05-23T05:44:37;101612.88;;;17.87;100.00
19777;BME280;10047;42.490;26.012;2023-05-23T05:47:02;101707.53;;;18.84;100.00
19777;BME280;10047;42.490;26.012;2023-05-23T05:49:28;101699.97;;;19.04;100.00
19777;BME280;10047;42.490;26.012;2023-05-23T05:51:53;101666.84;;;18.93;100.00
19777;BME280;10047;42.490;26.012;2023-05-23T05:54:19;101687.84;;;19.31;100.00
19777;BME280;10047;42.490;26.012;2023-05-23T05:56:46;101685.09;;;19.35;100.00
19777;BME280;10047;42.490;26.012;2023-05-23T05:59:11;101625.00;;;19.32;100.00
19777;BME280;10047;42.490;26.012;2023-05-23T06:01:37;101616.06;;;19.42;100.00
19777;BME280;10047;42.490;26.012;2023-05-23T06:04:02;101611.34;;;19.53;100.00
19777;BME280;10047;42.490;26.012;2023-05-23T06:06:28;101616.38;;;19.77;100.00
19777;BME280;10047;42.490;26.012;2023-05-23T06:08:53;101574.13;;;19.58;100.00
19777;BME280;10047;42.490;26.012;2023-05-23T06:11:19;101526.66;;;19.62;100.00
19777;BME280;10047;42.490;26.012;2023-05-23T06:13:44;101495.38;;;19.05;100.00
19777;BME280;10047;42.490;26.012;2023-05-23T06:16:10;101512.22;;;19.37;100.00
19777;BME280;10047;42.490;26.012;2023-05-23T06:18:36;101452.19;;;19.10;100.00
19777;BME280;10047;42.490;26.012;2023-05-23T06:21:01;101485.56;;;19.78;100.00
19777;BME280;10047;42.490;26.012;2023-05-23T06:23:26;101492.25;;;20.42;100.00
19777;BME280;10047;42.490;26.012;2023-05-23T06:25:52;101451.31;;;21.08;100.00
19777;BME280;10047;42.490;26.012;2023-05-23T06:28:18;101402.00;;;20.56;100.00
19777;BME280;10047;42.490;26.012;2023-05-23T06:30:43;101353.13;;;20.33;100.00
19777;BME280;10047;42.490;26.012;2023-05-23T06:33:08;101425.53;;;21.57;100.00
19777;BME280;10047;42.490;26.012;2023-05-23T06:35:34;101384.97;;;22.23;100.00
19777;BME280;10047;42.490;26.012;2023-05-23T06:37:59;101398.69;;;22.10;100.00
19777;BME280;10047;42.490;26.012;2023-05-23T06:40:25;101372.44;;;22.31;100.00
19777;BME280;10047;42.490;26.012;2023-05-23T06:42:50;101324.09;;;21.84;100.00
19777;BME280;10047;42.490;26.012;2023-05-23T06:45:16;101314.34;;;21.72;100.00
19777;BME280;10047;42.490;26.012;2023-05-23T06:47:41;101321.09;;;21.41;100.00
19777;BME280;10047;42.490;26.012;2023-05-23T06:50:09;101311.50;;;21.43;100.00
19777;BME280;10047;42.490;26.012;2023-05-23T06:52:35;101305.81;;;21.20;100.00
19777;BME280;10047;42.490;26.012;2023-05-23T06:55:00;101290.19;;;22.04;100.00
19777;BME280;10047;42.490;26.012;2023-05-23T06:57:26;101267.78;;;22.18;100.00
19777;BME280;10047;42.490;26.012;2023-05-23T06:59:51;101231.03;;;21.48;100.00
19777;BME280;10047;42.490;26.012;2023-05-23T07:02:17;101278.66;;;22.70;100.00
19777;BME280;10047;42.490;26.012;2023-05-23T07:04:42;101228.16;;;22.01;100.00
19777;BME280;10047;42.490;26.012;2023-05-23T07:07:07;101254.94;;;22.62;100.00
19777;BME280;10047;42.490;26.012;2023-05-23T07:09:33;101251.59;;;23.04;100.00
19777;BME280;10047;42.490;26.012;2023-05-23T07:11:58;101265.91;;;22.52;100.00
19777;BME280;10047;42.490;26.012;2023-05-23T07:14:23;101238.31;;;23.38;100.00
19777;BME280;10047;42.490;26.012;2023-05-23T07:17:00;101243.28;;;22.99;100.00
19777;BME280;10047;42.490;26.012;2023-05-23T07:19:25;101176.88;;;22.37;100.00
19777;BME280;10047;42.490;26.012;2023-05-23T07:21:51;101196.94;;;23.21;100.00
19777;BME280;10047;42.490;26.012;2023-05-23T07:24:16;101158.19;;;22.76;100.00
19777;BME280;10047;42.490;26.012;2023-05-23T07:26:42;101110.47;;;22.34;100.00
19777;BME280;10047;42.490;26.012;2023-05-23T07:29:07;101162.09;;;22.53;100.00
19777;BME280;10047;42.490;26.012;2023-05-23T07:31:33;101141.88;;;22.74;100.00
19777;BME280;10047;42.490;26.012;2023-05-23T07:33:58;101201.44;;;22.46;100.00
19777;BME280;10047;42.490;26.012;2023-05-23T07:36:23;101192.19;;;22.71;100.00
19777;BME280;10047;42.490;26.012;2023-05-23T07:38:49;101185.75;;;23.75;100.00
19777;BME280;10047;42.490;26.012;2023-05-23T07:41:14;101080.84;;;22.24;100.00
19777;BME280;10047;42.490;26.012;2023-05-23T07:43:40;101145.78;;;23.09;100.00
19777;BME280;10047;42.490;26.012;2023-05-23T07:46:05;101179.75;;;23.75;100.00
19777;BME280;10047;42.490;26.012;2023-05-23T07:48:31;101149.38;;;23.49;100.00
19777;BME280;10047;42.490;26.012;2023-05-23T07:50:56;101152.44;;;22.99;100.00
19777;BME280;10047;42.490;26.012;2023-05-23T07:53:21;101234.47;;;22.42;100.00
19777;BME280;10047;42.490;26.012;2023-05-23T07:55:47;101249.56;;;22.04;100.00
19777;BME280;10047;42.490;26.012;2023-05-23T07:58:12;101268.88;;;22.14;100.00
19777;BME280;10047;42.490;26.012;2023-05-23T08:00:38;101237.84;;;22.13;100.00
19777;BME280;10047;42.490;26.012;2023-05-23T08:03:05;101173.53;;;21.90;100.00
19777;BME280;10047;42.490;26.012;2023-05-23T08:05:31;101262.63;;;22.18;100.00
19777;BME280;10047;42.490;26.012;2023-05-23T08:07:56;101271.84;;;22.22;100.00
19777;BME280;10047;42.490;26.012;2023-05-23T08:10:22;101235.53;;;22.24;100.00
19777;BME280;10047;42.490;26.012;2023-05-23T08:12:47;101243.00;;;21.66;100.00
19777;BME280;10047;42.490;26.012;2023-05-23T08:15:12;101246.56;;;22.12;100.00
19777;BME280;10047;42.490;26.012;2023-05-23T08:17:38;101269.59;;;22.48;100.00
19777;BME280;10047;42.490;26.012;2023-05-23T08:20:04;101275.81;;;21.83;100.00
19777;BME280;10047;42.490;26.012;2023-05-23T08:22:29;101253.63;;;21.12;100.00
19777;BME280;10047;42.490;26.012;2023-05-23T08:24:55;101336.50;;;22.10;100.00
19777;BME280;10047;42.490;26.012;2023-05-23T08:27:20;101300.25;;;21.44;100.00
19777;BME280;10047;42.490;26.012;2023-05-23T08:29:47;101337.09;;;21.32;100.00
19777;BME280;10047;42.490;26.012;2023-05-23T08:32:12;101326.00;;;21.63;100.00
19777;BME280;10047;42.490;26.012;2023-05-23T08:34:39;101263.97;;;21.29;100.00
19777;BME280;10047;42.490;26.012;2023-05-23T08:37:04;101277.31;;;21.21;100.00
19777;BME280;10047;42.490;26.012;2023-05-23T08:39:30;101274.53;;;21.57;100.00
19777;BME280;10047;42.490;26.012;2023-05-23T08:41:55;101291.56;;;21.45;100.00
19777;BME280;10047;42.490;26.012;2023-05-23T08:44:21;101284.81;;;21.43;100.00
19777;BME280;10047;42.490;26.012;2023-05-23T08:46:47;101316.59;;;21.62;100.00
19777;BME280;10047;42.490;26.012;2023-05-23T08:49:17;101234.22;;;20.86;100.00
19777;BME280;10047;42.490;26.012;2023-05-23T08:51:42;101291.69;;;21.27;100.00
19777;BME280;10047;42.490;26.012;2023-05-23T08:54:09;101249.53;;;21.08;100.00
19777;BME280;10047;42.490;26.012;2023-05-23T08:56:37;101279.69;;;21.41;100.00
19777;BME280;10047;42.490;26.012;2023-05-23T08:59:03;101325.19;;;21.45;100.00
19777;BME280;10047;42.490;26.012;2023-05-23T09:01:29;101297.97;;;21.71;100.00
19777;BME280;10047;42.490;26.012;2023-05-23T09:03:55;101267.13;;;21.51;100.00
19777;BME280;10047;42.490;26.012;2023-05-23T09:06:24;101320.25;;;21.58;100.00
19777;BME280;10047;42.490;26.012;2023-05-23T09:08:50;101322.16;;;21.37;100.00
19777;BME280;10047;42.490;26.012;2023-05-23T09:11:16;101324.94;;;21.67;100.00
19777;BME280;10047;42.490;26.012;2023-05-23T09:13:41;101245.88;;;21.12;100.00
19777;BME280;10047;42.490;26.012;2023-05-23T09:16:08;101292.25;;;21.49;100.00
19777;BME280;10047;42.490;26.012;2023-05-23T09:21:03;101352.78;;;21.29;100.00
19777;BME280;10047;42.490;26.012;2023-05-23T09:23:30;101338.31;;;21.42;100.00
19777;BME280;10047;42.490;26.012;2023-05-23T09:25:56;101392.34;;;21.66;100.00
19777;BME280;10047;42.490;26.012;2023-05-23T09:28:24;101406.91;;;21.51;100.00
19777;BME280;10047;42.490;26.012;2023-05-23T09:31:00;101423.94;;;21.72;100.00
19777;BME280;10047;42.490;26.012;2023-05-23T09:33:42;101383.63;;;21.17;100.00
19777;BME280;10047;42.490;26.012;2023-05-23T09:36:08;101444.22;;;21.47;100.00
19777;BME280;10047;42.490;26.012;2023-05-23T09:38:40;101413.97;;;21.30;100.00
19777;BME280;10047;42.490;26.012;2023-05-23T09:41:07;101474.50;;;21.62;100.00
19777;BME280;10047;42.490;26.012;2023-05-23T09:43:36;101497.53;;;21.85;100.00
19777;BME280;10047;42.490;26.012;2023-05-23T09:46:11;101474.97;;;21.53;100.00
19777;BME280;10047;42.490;26.012;2023-05-23T09:48:37;101544.50;;;21.78;100.00
19777;BME280;10047;42.490;26.012;2023-05-23T09:51:12;101542.00;;;21.76;100.00
19777;BME280;10047;42.490;26.012;2023-05-23T09:53:37;101633.16;;;22.01;100.00
19777;BME280;10047;42.490;26.012;2023-05-23T09:56:03;101692.72;;;22.37;100.00
19777;BME280;10047;42.490;26.012;2023-05-23T09:58:31;101734.00;;;22.06;100.00
19777;BME280;10047;42.490;26.012;2023-05-23T10:00:58;101769.31;;;21.90;100.00
19777;BME280;10047;42.490;26.012;2023-05-23T10:03:34;101765.41;;;21.61;100.00
19777;BME280;10047;42.490;26.012;2023-05-23T10:06:08;101792.25;;;21.79;100.00
19777;BME280;10047;42.490;26.012;2023-05-23T10:08:44;101865.13;;;22.10;100.00
19777;BME280;10047;42.490;26.012;2023-05-23T10:13:43;102018.34;;;22.80;100.00
19777;BME280;10047;42.490;26.012;2023-05-23T10:16:18;102092.78;;;23.35;100.00
19777;BME280;10047;42.490;26.012;2023-05-23T10:18:49;102118.22;;;23.08;100.00
19777;BME280;10047;42.490;26.012;2023-05-23T10:21:23;102457.66;;;24.05;100.00
19777;BME280;10047;42.490;26.012;2023-05-23T10:23:53;102672.59;;;23.40;100.00
19777;BME280;10047;42.490;26.012;2023-05-23T10:26:20;103528.16;;;23.74;100.00
19777;BME280;10047;42.490;26.012;2023-05-23T10:28:47;103871.59;;;24.42;100.00
19777;BME280;10047;42.490;26.012;2023-05-23T10:31:14;104392.66;;;24.08;100.00
19777;BME280;10047;42.490;26.012;2023-05-23T10:33:43;104439.13;;;24.33;100.00
19777;BME280;10047;42.490;26.012;2023-05-23T10:36:15;104568.81;;;24.69;100.00
19777;BME280;10047;42.490;26.012;2023-05-23T10:39:08;105020.31;;;24.60;100.00
19777;BME280;10047;42.490;26.012;2023-05-23T10:41:46;105389.16;;;23.92;100.00
19777;BME280;10047;42.490;26.012;2023-05-23T10:46:55;105414.94;;;23.42;100.00
19777;BME280;10047;42.490;26.012;2023-05-23T10:49:44;105285.53;;;22.90;100.00
19777;BME280;10047;42.490;26.012;2023-05-23T10:52:12;105338.69;;;23.46;100.00
19777;BME280;10047;42.490;26.012;2023-05-23T10:54:52;105268.38;;;23.17;100.00
19777;BME280;10047;42.490;26.012;2023-05-23T10:57:20;105245.09;;;23.37;100.00
19777;BME280;10047;42.490;26.012;2023-05-23T10:59:47;105226.00;;;23.32;100.00
19777;BME280;10047;42.490;26.012;2023-05-23T11:02:17;105095.06;;;22.83;100.00
19777;BME280;10047;42.490;26.012;2023-05-23T11:04:43;105142.88;;;23.56;100.00
19777;BME280;10047;42.490;26.012;2023-05-23T11:07:28;105129.84;;;23.32;100.00
19777;BME280;10047;42.490;26.012;2023-05-23T11:10:12;105143.75;;;23.69;100.00
19777;BME280;10047;42.490;26.012;2023-05-23T11:12:42;105082.19;;;23.44;100.00
19777;BME280;10047;42.490;26.012;2023-05-23T11:15:18;105106.44;;;23.71;100.00
19777;BME280;10047;42.490;26.012;2023-05-23T11:17:56;105144.56;;;24.15;100.00
19777;BME280;10047;42.490;26.012;2023-05-23T11:20:25;105119.44;;;23.53;100.00
19777;BME280;10047;42.490;26.012;2023-05-23T11:23:00;105528.13;;;24.39;100.00
19777;BME280;10047;42.490;26.012;2023-05-23T11:25:43;106071.41;;;23.71;100.00
19777;BME280;10047;42.490;26.012;2023-05-23T11:28:10;107234.91;;;23.60;100.00
19777;BME280;10047;42.490;26.012;2023-05-23T11:30:37;106713.22;;;24.45;100.00
19777;BME280;10047;42.490;26.012;2023-05-23T11:33:10;107796.28;;;24.05;100.00
19777;BME280;10047;42.490;26.012;2023-05-23T11:35:43;107737.41;;;23.88;100.00
19777;BME280;10047;42.490;26.012;2023-05-23T11:38:10;107989.56;;;25.00;100.00
19777;BME280;10047;42.490;26.012;2023-05-23T11:40:39;107864.16;;;25.17;100.00
19777;BME280;10047;42.490;26.012;2023-05-23T11:43:10;107814.50;;;25.16;100.00
19777;BME280;10047;42.490;26.012;2023-05-23T11:45:37;107450.75;;;24.78;100.00
19777;BME280;10047;42.490;26.012;2023-05-23T11:48:10;107241.84;;;24.11;100.00
19777;BME280;10047;42.490;26.012;2023-05-23T11:50:44;107080.78;;;23.40;100.00
19777;BME280;10047;42.490;26.012;2023-05-23T11:53:10;107202.59;;;23.78;100.00
19777;BME280;10047;42.490;26.012;2023-05-23T11:55:39;107269.19;;;23.73;100.00
19777;BME280;10047;42.490;26.012;2023-05-23T11:58:06;107254.31;;;23.20;100.00
19777;BME280;10047;42.490;26.012;2023-05-23T12:00:31;107341.16;;;23.25;100.00
19777;BME280;10047;42.490;26.012;2023-05-23T12:02:57;107466.31;;;23.33;100.00
19777;BME280;10047;42.490;26.012;2023-05-23T12:05:22;107598.13;;;23.34;100.00
19777;BME280;10047;42.490;26.012;2023-05-23T12:07:48;107700.97;;;23.47;100.00
19777;BME280;10047;42.490;26.012;2023-05-23T12:10:17;107713.47;;;23.55;100.00
19777;BME280;10047;42.490;26.012;2023-05-23T12:12:43;107577.84;;;23.68;100.00
19777;BME280;10047;42.490;26.012;2023-05-23T12:15:09;107370.66;;;23.48;100.00
19777;BME280;10047;42.490;26.012;2023-05-23T12:17:43;107387.41;;;24.03;100.00
19777;BME280;10047;42.490;26.012;2023-05-23T12:20:10;107307.22;;;24.73;100.00
19777;BME280;10047;42.490;26.012;2023-05-23T12:22:36;106999.06;;;24.52;100.00
19777;BME280;10047;42.490;26.012;2023-05-23T12:25:02;106649.84;;;24.06;100.00
19777;BME280;10047;42.490;26.012;2023-05-23T12:27:32;106307.81;;;23.53;100.00
19777;BME280;10047;42.490;26.012;2023-05-23T12:30:13;106366.28;;;23.73;100.00
19777;BME280;10047;42.490;26.012;2023-05-23T12:32:40;106363.53;;;24.09;100.00
19777;BME280;10047;42.490;26.012;2023-05-23T12:35:07;106338.53;;;23.72;100.00
19777;BME280;10047;42.490;26.012;2023-05-23T12:37:33;106384.69;;;23.81;100.00
19777;BME280;10047;42.490;26.012;2023-05-23T12:40:09;106283.22;;;23.82;100.00
19777;BME280;10047;42.490;26.012;2023-05-23T12:45:14;105876.19;;;24.37;100.00
19777;BME280;10047;42.490;26.012;2023-05-23T12:47:40;105665.00;;;23.98;100.00
19777;BME280;10047;42.490;26.012;2023-05-23T12:50:06;105616.69;;;24.42;100.00